createdAt,value
2023-03-15T00:01:39.627Z,88.58
2023-03-15T00:04:09.010Z,88.36
2023-03-15T00:06:38.379Z,88.47
2023-03-15T00:09:07.977Z,88.49
2023-03-15T00:11:37.292Z,88.46
2023-03-15T00:14:07.295Z,88.45
2023-03-15T00:16:37.663Z,88.71
2023-03-15T00:19:07.324Z,88.48
2023-03-15T00:21:37.036Z,88.40
2023-03-15T00:24:08.047Z,88.39
2023-03-15T00:26:37.967Z,88.26
2023-03-15T00:29:07.485Z,88.23
2023-03-15T00:31:36.851Z,88.32
2023-03-15T00:34:06.244Z,88.28
2023-03-15T00:36:35.581Z,88.33
2023-03-15T00:39:05.258Z,88.10
2023-03-15T00:41:35.623Z,88.31
2023-03-15T00:44:05.616Z,87.95
2023-03-15T00:46:35.249Z,87.88
2023-03-15T00:49:04.700Z,88.07
2023-03-15T00:51:34.480Z,87.90
2023-03-15T00:54:04.083Z,87.56
2023-03-15T00:56:33.365Z,87.52
2023-03-15T00:59:03.855Z,87.53
2023-03-15T01:01:33.301Z,87.53
2023-03-15T01:04:02.624Z,87.33
2023-03-15T01:06:32.010Z,87.41
2023-03-15T01:09:02.154Z,87.49
2023-03-15T01:11:31.795Z,87.37
2023-03-15T01:14:03.022Z,87.35
2023-03-15T01:16:33.693Z,87.32
2023-03-15T01:19:03.086Z,87.07
2023-03-15T01:21:32.677Z,87.01
2023-03-15T01:24:02.093Z,87.09
2023-03-15T01:26:31.814Z,86.95
2023-03-15T01:29:01.105Z,87.03
2023-03-15T01:31:31.243Z,86.91
2023-03-15T01:34:01.198Z,87.10
2023-03-15T01:36:33.668Z,87.12
2023-03-15T01:39:03.022Z,87.41
2023-03-15T01:41:44.324Z,87.27
2023-03-15T01:44:15.411Z,87.27
2023-03-15T01:46:45.620Z,86.96
2023-03-15T01:49:25.544Z,87.06
2023-03-15T01:51:59.649Z,87.21
2023-03-15T01:54:41.695Z,86.88
2023-03-15T01:57:16.490Z,86.84
2023-03-15T01:59:50.567Z,87.02
2023-03-15T02:02:22.131Z,87.08
2023-03-15T02:04:57.819Z,86.87
2023-03-15T02:07:30.314Z,86.73
2023-03-15T02:10:03.692Z,86.97
2023-03-15T02:12:38.421Z,86.99
2023-03-15T02:15:10.971Z,86.85
2023-03-15T02:17:42.890Z,86.63
2023-03-15T02:20:27.914Z,86.53
2023-03-15T02:23:00.450Z,86.83
2023-03-15T02:25:40.960Z,86.52
2023-03-15T02:28:13.155Z,86.37
2023-03-15T02:30:44.721Z,86.69
2023-03-15T02:33:19.304Z,86.60
2023-03-15T02:35:48.699Z,86.52
2023-03-15T02:38:18.746Z,86.28
2023-03-15T02:40:48.841Z,86.22
2023-03-15T02:43:20.530Z,86.31
2023-03-15T02:45:51.084Z,85.96
2023-03-15T02:48:21.328Z,86.43
2023-03-15T02:50:51.325Z,86.23
2023-03-15T02:53:20.662Z,86.21
2023-03-15T02:55:51.308Z,86.22
2023-03-15T02:58:20.733Z,86.29
2023-03-15T03:00:52.436Z,86.27
2023-03-15T03:03:21.670Z,86.54
2023-03-15T03:05:51.094Z,86.46
2023-03-15T03:08:20.467Z,86.28
2023-03-15T03:10:50.010Z,86.54
2023-03-15T03:13:19.537Z,86.18
2023-03-15T03:15:57.950Z,86.36
2023-03-15T03:18:29.926Z,86.44
2023-03-15T03:20:59.926Z,86.50
2023-03-15T03:23:30.142Z,86.44
2023-03-15T03:26:00.786Z,86.28
2023-03-15T03:28:32.609Z,86.12
2023-03-15T03:31:02.730Z,86.62
2023-03-15T03:33:33.030Z,86.76
2023-03-15T03:36:03.882Z,86.51
2023-03-15T03:38:33.296Z,86.44
2023-03-15T03:41:03.519Z,86.53
2023-03-15T03:43:33.506Z,86.55
2023-03-15T03:46:03.206Z,86.43
2023-03-15T03:48:34.334Z,86.31
2023-03-15T03:51:03.917Z,86.52
2023-03-15T03:53:33.353Z,86.16
2023-03-15T03:56:06.044Z,86.44
2023-03-15T03:58:36.770Z,86.32
2023-03-15T04:01:14.161Z,86.19
2023-03-15T04:03:43.590Z,85.86
2023-03-15T04:06:18.474Z,85.83
2023-03-15T04:08:49.345Z,85.73
2023-03-15T04:11:39.111Z,85.81
2023-03-15T04:14:10.111Z,85.80
2023-03-15T04:16:40.001Z,85.56
2023-03-15T04:19:13.086Z,85.27
2023-03-15T04:21:46.621Z,85.20
2023-03-15T04:24:39.461Z,85.26
2023-03-15T04:27:14.051Z,85.21
2023-03-15T04:29:58.136Z,85.21
2023-03-15T04:32:46.123Z,85.32
2023-03-15T04:35:33.008Z,85.28
2023-03-15T04:38:26.074Z,85.06
2023-03-15T04:41:16.324Z,85.07
2023-03-15T04:44:05.264Z,84.82
2023-03-15T04:47:07.643Z,84.78
2023-03-15T04:50:00.336Z,85.27
2023-03-15T04:52:52.500Z,85.12
2023-03-15T04:55:37.606Z,85.28
2023-03-15T04:58:25.689Z,85.20
2023-03-15T05:01:18.620Z,85.08
2023-03-15T05:04:17.448Z,85.39
2023-03-15T05:06:56.499Z,85.38
2023-03-15T05:09:49.125Z,85.10
2023-03-15T05:12:37.031Z,85.35
2023-03-15T05:15:18.833Z,85.14
2023-03-15T05:18:17.580Z,85.26
2023-03-15T05:21:16.316Z,85.32
2023-03-15T05:24:09.095Z,85.09
2023-03-15T05:26:58.704Z,85.22
2023-03-15T05:29:43.388Z,85.56
2023-03-15T05:32:34.024Z,85.71
2023-03-15T05:35:26.146Z,85.70
2023-03-15T05:38:31.365Z,85.90
2023-03-15T05:41:01.381Z,85.94
2023-03-15T05:43:46.195Z,86.02
2023-03-15T05:46:38.426Z,85.50
2023-03-15T05:49:13.961Z,85.23
2023-03-15T05:52:06.837Z,85.39
2023-03-15T05:54:40.264Z,85.46
2023-03-15T05:57:48.050Z,85.36
2023-03-15T06:00:43.807Z,85.36
2023-03-15T06:03:19.691Z,84.92
2023-03-15T06:05:54.300Z,84.82
2023-03-15T06:08:31.317Z,84.54
2023-03-15T06:11:00.751Z,84.26
2023-03-15T06:13:30.165Z,84.39
2023-03-15T06:16:00.462Z,84.25
2023-03-15T06:18:30.533Z,83.82
2023-03-15T06:21:01.431Z,83.59
2023-03-15T06:23:30.754Z,83.68
2023-03-15T06:26:00.295Z,83.35
2023-03-15T06:28:31.258Z,83.65
2023-03-15T06:31:08.576Z,83.46
2023-03-15T06:33:41.949Z,83.87
2023-03-15T06:36:13.717Z,83.85
2023-03-15T06:38:43.407Z,83.98
2023-03-15T06:41:14.840Z,83.96
2023-03-15T06:43:44.311Z,83.67
2023-03-15T06:46:14.310Z,83.51
2023-03-15T06:48:43.967Z,83.69
2023-03-15T06:51:14.008Z,83.49
2023-03-15T06:53:43.932Z,83.51
2023-03-15T06:56:13.238Z,83.22
2023-03-15T06:58:42.548Z,82.83
2023-03-15T07:01:13.919Z,82.87
2023-03-15T07:03:43.579Z,82.72
2023-03-15T07:06:12.925Z,82.51
2023-03-15T07:08:42.246Z,82.34
2023-03-15T07:11:11.564Z,82.25
2023-03-15T07:13:41.173Z,82.10
2023-03-15T07:16:11.354Z,81.90
2023-03-15T07:18:40.609Z,81.84
2023-03-15T07:21:09.914Z,81.63
2023-03-15T07:23:39.180Z,82.07
2023-03-15T07:26:08.517Z,81.50
2023-03-15T07:28:37.934Z,81.49
2023-03-15T07:31:07.578Z,81.27
2023-03-15T07:33:37.667Z,81.10
2023-03-15T07:36:08.437Z,80.88
2023-03-15T07:38:38.549Z,81.08
2023-03-15T07:41:08.404Z,80.59
2023-03-15T07:43:40.337Z,80.44
2023-03-15T07:46:27.869Z,80.58
2023-03-15T07:48:57.144Z,80.59
2023-03-15T07:51:26.594Z,79.94
2023-03-15T07:53:55.847Z,80.08
2023-03-15T07:56:25.124Z,79.97
2023-03-15T07:58:54.410Z,80.01
2023-03-15T08:01:23.702Z,79.52
2023-03-15T08:03:53.078Z,79.66
2023-03-15T08:06:22.798Z,79.62
2023-03-15T08:08:52.116Z,79.47
2023-03-15T08:11:21.420Z,79.46
2023-03-15T08:13:50.693Z,79.62
2023-03-15T08:16:19.974Z,79.23
2023-03-15T08:18:49.226Z,79.14
2023-03-15T08:21:18.522Z,79.11
2023-03-15T08:23:48.197Z,78.24
2023-03-15T08:26:19.119Z,78.34
2023-03-15T08:28:48.387Z,78.45
2023-03-15T08:31:17.719Z,78.39
2023-03-15T08:33:47.913Z,78.24
2023-03-15T08:36:17.395Z,77.70
2023-03-15T08:38:46.767Z,78.23
2023-03-15T08:41:16.045Z,78.71
2023-03-15T08:43:45.371Z,78.30
2023-03-15T08:46:14.962Z,78.35
2023-03-15T08:48:44.299Z,78.18
2023-03-15T08:51:14.301Z,77.94
2023-03-15T08:53:43.599Z,77.64
2023-03-15T08:56:13.104Z,78.10
2023-03-15T08:58:42.448Z,78.05
2023-03-15T09:01:13.515Z,77.80
2023-03-15T09:03:43.571Z,77.75
2023-03-15T09:06:13.078Z,76.99
2023-03-15T09:08:42.389Z,76.87
2023-03-15T09:11:11.762Z,76.83
2023-03-15T09:13:41.337Z,76.93
2023-03-15T09:16:10.638Z,76.81
2023-03-15T09:18:40.968Z,77.10
2023-03-15T09:21:10.695Z,77.26
2023-03-15T09:23:40.043Z,76.87
2023-03-15T09:26:09.417Z,77.23
2023-03-15T09:28:38.728Z,77.02
2023-03-15T09:31:08.446Z,76.73
2023-03-15T09:33:37.838Z,76.61
2023-03-15T09:36:07.817Z,76.47
2023-03-15T09:38:37.150Z,76.76
2023-03-15T09:41:06.804Z,76.70
2023-03-15T09:43:57.944Z,76.18
2023-03-15T09:46:33.194Z,75.85
2023-03-15T09:49:09.634Z,76.02
2023-03-15T09:51:47.449Z,76.51
2023-03-15T09:54:20.843Z,76.38
2023-03-15T09:56:56.732Z,76.79
2023-03-15T09:59:30.627Z,76.29
2023-03-15T10:02:15.015Z,76.34
2023-03-15T10:04:47.156Z,76.89
2023-03-15T10:07:16.945Z,76.84
2023-03-15T10:09:47.024Z,76.77
2023-03-15T10:12:23.577Z,76.58
2023-03-15T10:15:23.714Z,76.59
2023-03-15T10:18:14.848Z,76.36
2023-03-15T10:20:53.733Z,76.15
2023-03-15T10:23:28.914Z,76.29
2023-03-15T10:25:58.556Z,75.98
2023-03-15T10:28:33.863Z,76.02
2023-03-15T10:31:21.541Z,76.15
2023-03-15T10:33:56.917Z,75.57
2023-03-15T10:36:26.554Z,75.27
2023-03-15T10:38:57.389Z,74.81
2023-03-15T10:41:36.592Z,75.14
2023-03-15T10:44:07.887Z,74.96
2023-03-15T10:46:37.225Z,74.29
2023-03-15T10:49:12.203Z,74.91
2023-03-15T10:51:44.936Z,74.22
2023-03-15T10:54:16.940Z,73.85
2023-03-15T10:56:48.622Z,73.93
2023-03-15T10:59:20.119Z,73.92
2023-03-15T11:01:51.529Z,73.79
2023-03-15T11:04:22.710Z,73.68
2023-03-15T11:07:02.692Z,73.07
2023-03-15T11:09:40.659Z,72.76
2023-03-15T11:12:18.270Z,72.95
2023-03-15T11:14:50.949Z,72.83
2023-03-15T11:17:22.834Z,72.76
2023-03-15T11:19:56.906Z,73.02
2023-03-15T11:22:26.315Z,73.16
2023-03-15T11:24:55.886Z,72.48
2023-03-15T11:27:26.276Z,71.80
2023-03-15T11:29:59.933Z,71.82
2023-03-15T11:32:32.016Z,71.74
2023-03-15T11:35:04.765Z,71.67
2023-03-15T11:37:39.167Z,71.56
2023-03-15T11:40:17.530Z,71.99
2023-03-15T11:42:54.266Z,71.41
2023-03-15T11:45:34.224Z,71.32
2023-03-15T11:48:28.767Z,71.13
2023-03-15T11:50:59.278Z,71.41
2023-03-15T11:53:34.265Z,70.98
2023-03-15T11:56:22.274Z,69.99
2023-03-15T11:59:06.554Z,70.51
2023-03-15T12:01:37.189Z,70.89
2023-03-15T12:04:42.610Z,69.89
2023-03-15T12:07:38.584Z,68.92
2023-03-15T12:10:33.740Z,69.21
2023-03-15T12:13:18.633Z,69.43
2023-03-15T12:15:50.997Z,69.68
2023-03-15T12:18:32.981Z,69.08
2023-03-15T12:21:18.229Z,68.47
2023-03-15T12:23:57.020Z,67.96
2023-03-15T12:26:41.109Z,68.02
2023-03-15T12:29:16.954Z,68.49
2023-03-15T12:32:04.135Z,69.05
2023-03-15T12:34:44.218Z,68.26
2023-03-15T12:37:19.045Z,68.00
2023-03-15T12:39:51.654Z,68.15
2023-03-15T12:43:08.864Z,67.89
2023-03-15T12:45:49.190Z,67.74
2023-03-15T12:48:23.817Z,67.93
2023-03-15T12:51:04.784Z,67.47
2023-03-15T12:53:44.773Z,66.54
2023-03-15T12:56:42.175Z,66.86
2023-03-15T12:59:27.199Z,65.79
2023-03-15T13:01:58.640Z,65.47
2023-03-15T13:04:29.901Z,64.89
2023-03-15T13:07:36.847Z,64.74
2023-03-15T13:10:31.403Z,65.49
2023-03-15T13:13:08.056Z,65.77
2023-03-15T13:15:43.141Z,65.83
2023-03-15T13:18:17.716Z,65.82
2023-03-15T13:20:57.626Z,64.31
2023-03-15T13:23:30.362Z,64.97
2023-03-15T13:26:32.701Z,65.20
2023-03-15T13:29:10.098Z,65.53
2023-03-15T13:31:39.638Z,65.69
2023-03-15T13:34:15.993Z,65.52
2023-03-15T13:36:47.652Z,65.61
2023-03-15T13:39:22.567Z,65.80
2023-03-15T13:41:58.447Z,65.98
2023-03-15T13:44:29.010Z,66.00
2023-03-15T13:46:59.675Z,65.36
2023-03-15T13:49:33.620Z,64.20
2023-03-15T13:52:14.255Z,64.01
2023-03-15T13:54:45.184Z,63.35
2023-03-15T13:57:16.709Z,63.92
2023-03-15T13:59:52.061Z,63.30
2023-03-15T14:02:25.069Z,63.57
2023-03-15T14:04:58.570Z,63.08
2023-03-15T14:07:33.068Z,61.98
2023-03-15T14:10:25.383Z,61.54
2023-03-15T14:12:55.824Z,60.98
2023-03-15T14:15:34.116Z,61.18
2023-03-15T14:18:16.515Z,61.29
2023-03-15T14:20:52.353Z,61.32
2023-03-15T14:23:25.299Z,60.98
2023-03-15T14:25:56.315Z,59.61
2023-03-15T14:28:25.707Z,58.99
2023-03-15T14:30:56.987Z,59.18
2023-03-15T14:33:32.317Z,59.38
2023-03-15T14:36:04.072Z,57.51
2023-03-15T14:38:35.461Z,57.43
2023-03-15T14:41:32.439Z,57.31
2023-03-15T14:44:02.886Z,57.74
2023-03-15T14:46:32.772Z,58.33
2023-03-15T14:49:02.612Z,58.29
2023-03-15T14:51:32.686Z,58.15
2023-03-15T14:54:02.116Z,58.40
2023-03-15T14:56:31.527Z,57.59
2023-03-15T14:59:03.339Z,58.36
2023-03-15T15:01:32.948Z,58.11
2023-03-15T15:04:04.219Z,57.37
2023-03-15T15:06:36.214Z,57.14
2023-03-15T15:09:06.321Z,57.53
2023-03-15T15:11:35.741Z,57.91
2023-03-15T15:14:12.124Z,57.90
2023-03-15T15:16:41.728Z,58.81
2023-03-15T15:19:12.125Z,59.00
2023-03-15T15:21:42.205Z,59.29
2023-03-15T15:24:17.099Z,59.15
2023-03-15T15:26:47.051Z,59.94
2023-03-15T15:29:17.824Z,60.10
2023-03-15T15:31:47.275Z,60.21
2023-03-15T15:34:16.659Z,59.96
2023-03-15T15:36:46.411Z,60.59
2023-03-15T15:39:21.286Z,60.61
2023-03-15T15:41:50.611Z,60.90
2023-03-15T15:44:21.584Z,61.11
2023-03-15T15:46:50.973Z,60.81
2023-03-15T15:49:20.494Z,61.24
2023-03-15T15:51:50.923Z,61.47
2023-03-15T15:54:22.904Z,61.38
2023-03-15T15:56:54.770Z,60.85
2023-03-15T15:59:25.026Z,61.15
2023-03-15T16:02:00.991Z,60.53
2023-03-15T16:04:32.362Z,60.23
2023-03-15T16:07:03.261Z,60.70
2023-03-15T16:09:35.443Z,60.51
2023-03-15T16:12:13.503Z,60.55
2023-03-15T16:14:43.073Z,60.37
2023-03-15T16:17:17.233Z,60.66
2023-03-15T16:19:46.574Z,60.50
2023-03-15T16:22:17.277Z,60.27
2023-03-15T16:24:50.357Z,59.87
2023-03-15T16:27:23.256Z,59.82
2023-03-15T16:29:55.187Z,59.65
2023-03-15T16:32:41.084Z,59.72
2023-03-15T16:35:14.782Z,60.03
2023-03-15T16:37:46.015Z,59.91
2023-03-15T16:40:21.830Z,59.74
2023-03-15T16:42:51.165Z,59.90
2023-03-15T16:45:21.354Z,59.88
2023-03-15T16:47:51.085Z,60.07
2023-03-15T16:50:20.876Z,60.08
2023-03-15T16:52:53.156Z,60.20
2023-03-15T16:55:26.444Z,59.77
2023-03-15T16:57:56.390Z,59.79
2023-03-15T17:00:26.500Z,59.94
2023-03-15T17:02:59.335Z,60.08
2023-03-15T17:05:31.661Z,59.99
2023-03-15T17:08:02.170Z,59.93
2023-03-15T17:10:32.932Z,60.04
2023-03-15T17:13:03.322Z,60.00
2023-03-15T17:15:33.159Z,60.05
2023-03-15T17:18:02.755Z,60.25
2023-03-15T17:20:33.669Z,60.41
2023-03-15T17:23:05.088Z,60.09
2023-03-15T17:25:35.351Z,60.40
2023-03-15T17:28:06.044Z,60.18
2023-03-15T17:30:37.992Z,60.57
2023-03-15T17:33:07.980Z,60.97
2023-03-15T17:35:41.606Z,61.22
2023-03-15T17:38:19.534Z,61.42
2023-03-15T17:40:49.990Z,61.61
2023-03-15T17:43:19.697Z,61.62
2023-03-15T17:45:49.087Z,61.74
2023-03-15T17:48:18.628Z,62.00
2023-03-15T17:50:48.587Z,61.58
2023-03-15T17:53:20.617Z,61.85
2023-03-15T17:55:53.076Z,62.17
2023-03-15T17:58:25.962Z,62.17
2023-03-15T18:00:56.065Z,62.39
2023-03-15T18:03:26.932Z,61.90
2023-03-15T18:05:57.159Z,62.09
2023-03-15T18:08:27.255Z,62.17
2023-03-15T18:10:57.951Z,62.35
2023-03-15T18:13:29.451Z,62.41
2023-03-15T18:15:59.495Z,62.40
2023-03-15T18:18:29.099Z,62.33
2023-03-15T18:20:58.907Z,62.42
2023-03-15T18:23:28.788Z,62.70
2023-03-15T18:25:59.077Z,62.92
2023-03-15T18:28:28.746Z,62.84
2023-03-15T18:30:58.304Z,63.08
2023-03-15T18:33:27.939Z,63.16
2023-03-15T18:35:57.421Z,63.03
2023-03-15T18:38:26.852Z,62.87
2023-03-15T18:40:56.945Z,63.43
2023-03-15T18:43:26.587Z,63.97
2023-03-15T18:45:56.306Z,63.65
2023-03-15T18:48:39.739Z,64.04
2023-03-15T18:51:12.167Z,64.34
2023-03-15T18:53:43.132Z,64.35
2023-03-15T18:56:18.741Z,64.57
2023-03-15T18:58:50.241Z,64.74
2023-03-15T19:01:22.315Z,65.13
2023-03-15T19:03:52.405Z,65.10
2023-03-15T19:06:22.381Z,65.17
2023-03-15T19:08:53.700Z,65.27
2023-03-15T19:11:24.673Z,65.41
2023-03-15T19:13:54.006Z,65.41
2023-03-15T19:16:24.007Z,65.90
2023-03-15T19:18:54.740Z,65.85
2023-03-15T19:21:25.759Z,65.91
2023-03-15T19:23:57.163Z,66.19
2023-03-15T19:26:27.585Z,66.49
2023-03-15T19:28:56.948Z,66.31
2023-03-15T19:31:26.428Z,66.54
2023-03-15T19:33:55.840Z,66.36
2023-03-15T19:36:25.478Z,66.60
2023-03-15T19:38:54.802Z,67.01
2023-03-15T19:41:24.167Z,66.90
2023-03-15T19:43:53.498Z,66.87
2023-03-15T19:46:22.960Z,67.20
2023-03-15T19:48:52.609Z,67.62
2023-03-15T19:51:22.105Z,67.54
2023-03-15T19:53:51.514Z,68.33
2023-03-15T19:56:21.111Z,68.53
2023-03-15T19:58:50.764Z,68.55
2023-03-15T20:01:20.129Z,69.01
2023-03-15T20:03:49.551Z,68.95
2023-03-15T20:06:18.896Z,69.16
2023-03-15T20:08:48.215Z,69.18
2023-03-15T20:11:24.447Z,69.01
2023-03-15T20:13:54.155Z,69.20
2023-03-15T20:16:23.950Z,69.41
2023-03-15T20:18:55.223Z,69.26
2023-03-15T20:21:24.779Z,69.31
2023-03-15T20:23:54.178Z,69.55
2023-03-15T20:26:24.630Z,69.23
2023-03-15T20:28:54.054Z,69.59
2023-03-15T20:31:23.396Z,69.65
2023-03-15T20:33:52.857Z,69.46
2023-03-15T20:36:22.368Z,69.97
2023-03-15T20:38:51.732Z,70.37
2023-03-15T20:41:21.261Z,70.32
2023-03-15T20:43:51.084Z,70.58
2023-03-15T20:46:22.200Z,70.93
2023-03-15T20:48:52.213Z,71.14
2023-03-15T20:51:21.900Z,71.30
2023-03-15T20:53:51.344Z,71.18
2023-03-15T20:56:21.378Z,71.76
2023-03-15T20:58:50.761Z,71.91
2023-03-15T21:01:20.230Z,72.09
2023-03-15T21:03:49.620Z,72.12
2023-03-15T21:06:19.013Z,72.19
2023-03-15T21:08:48.710Z,72.21
2023-03-15T21:11:18.014Z,72.10
2023-03-15T21:13:47.660Z,72.21
2023-03-15T21:16:17.665Z,72.19
2023-03-15T21:18:51.241Z,72.27
2023-03-15T21:21:21.226Z,71.96
2023-03-15T21:23:50.505Z,71.91
2023-03-15T21:26:19.871Z,72.17
2023-03-15T21:28:50.102Z,72.10
2023-03-15T21:31:19.619Z,72.41
2023-03-15T21:33:50.754Z,72.22
2023-03-15T21:36:20.354Z,72.03
2023-03-15T21:38:49.729Z,72.36
2023-03-15T21:41:19.018Z,72.50
2023-03-15T21:43:48.326Z,72.75
2023-03-15T21:46:17.719Z,72.99
2023-03-15T21:48:47.244Z,72.87
2023-03-15T21:51:16.875Z,73.07
2023-03-15T21:53:46.152Z,72.97
2023-03-15T21:56:15.491Z,73.24
2023-03-15T21:58:44.826Z,72.96
2023-03-15T22:01:15.232Z,72.87
2023-03-15T22:03:44.689Z,73.11
2023-03-15T22:06:13.984Z,73.09
2023-03-15T22:08:43.571Z,73.27
2023-03-15T22:11:13.221Z,73.60
2023-03-15T22:13:42.593Z,73.43
2023-03-15T22:16:12.863Z,73.67
2023-03-15T22:18:42.138Z,73.59
2023-03-15T22:21:11.479Z,73.80
2023-03-15T22:23:40.753Z,73.72
2023-03-15T22:26:10.478Z,73.79
2023-03-15T22:28:40.418Z,73.77
2023-03-15T22:31:11.580Z,73.79
2023-03-15T22:33:40.936Z,73.89
2023-03-15T22:36:10.864Z,74.22
2023-03-15T22:38:40.764Z,74.34
2023-03-15T22:41:14.213Z,74.49
2023-03-15T22:43:44.925Z,74.52
2023-03-15T22:46:14.859Z,74.34
2023-03-15T22:48:44.211Z,74.38
2023-03-15T22:51:17.127Z,74.81
2023-03-15T22:53:46.397Z,74.75
2023-03-15T22:56:15.679Z,74.87
2023-03-15T22:58:47.186Z,74.70
2023-03-15T23:01:16.514Z,74.61
2023-03-15T23:03:46.472Z,74.74
2023-03-15T23:06:15.782Z,74.72
2023-03-15T23:08:45.413Z,75.00
2023-03-15T23:11:15.827Z,75.31
2023-03-15T23:13:47.814Z,75.10
2023-03-15T23:16:17.634Z,75.10
2023-03-15T23:18:49.094Z,75.25
2023-03-15T23:21:18.531Z,75.33
2023-03-15T23:23:47.861Z,75.26
2023-03-15T23:26:19.622Z,75.53
2023-03-15T23:28:49.953Z,75.45
2023-03-15T23:31:19.395Z,75.64
2023-03-15T23:33:48.640Z,75.48
2023-03-15T23:36:18.878Z,75.94
2023-03-15T23:38:48.999Z,75.86
2023-03-15T23:41:18.390Z,75.99
2023-03-15T23:43:47.686Z,76.02
2023-03-15T23:46:17.192Z,76.06
2023-03-15T23:48:47.228Z,76.07
2023-03-15T23:51:16.635Z,76.20
2023-03-15T23:53:45.945Z,75.91
2023-03-15T23:56:15.769Z,76.20
2023-03-15T23:58:44.992Z,76.35
